createdAt,value
2023-04-30T00:03:24.561Z,8.29
2023-04-30T00:07:26.668Z,8.26
2023-04-30T00:11:28.291Z,8.25
2023-04-30T00:15:29.793Z,8.20
2023-04-30T00:19:31.221Z,8.26
2023-04-30T00:23:32.708Z,7.96
2023-04-30T00:31:45.671Z,7.99
2023-04-30T00:35:47.405Z,7.89
2023-04-30T00:39:48.852Z,7.90
2023-04-30T00:43:50.301Z,7.92
2023-04-30T00:47:51.846Z,7.74
2023-04-30T00:51:54.377Z,7.54
2023-04-30T00:55:56.677Z,7.28
2023-04-30T00:59:58.600Z,7.28
2023-04-30T01:04:00.948Z,7.13
2023-04-30T01:08:02.433Z,7.13
2023-04-30T01:12:17.702Z,7.05
2023-04-30T01:16:30.595Z,7.09
2023-04-30T01:20:33.669Z,6.83
2023-04-30T01:24:58.206Z,6.81
2023-04-30T01:29:02.826Z,6.98
2023-04-30T01:33:04.454Z,6.94
2023-04-30T01:37:16.311Z,7.07
2023-04-30T01:41:34.494Z,6.93
2023-04-30T01:45:41.946Z,6.80
2023-04-30T01:50:29.028Z,6.71
2023-04-30T01:54:42.176Z,6.79
2023-04-30T01:58:45.705Z,6.67
2023-04-30T02:02:47.207Z,6.75
2023-04-30T02:06:48.726Z,6.63
2023-04-30T02:10:50.252Z,6.58
2023-04-30T02:14:51.673Z,6.52
2023-04-30T02:18:53.111Z,6.51
2023-04-30T02:22:54.560Z,6.34
2023-04-30T02:26:56.020Z,6.18
2023-04-30T02:30:57.693Z,6.30
2023-04-30T02:34:59.192Z,6.27
2023-04-30T02:39:00.708Z,6.19
2023-04-30T02:43:02.103Z,6.17
2023-04-30T02:47:03.523Z,5.79
2023-04-30T02:51:05.506Z,6.02
2023-04-30T02:55:07.661Z,5.88
2023-04-30T02:59:09.137Z,5.78
2023-04-30T03:03:10.818Z,5.41
2023-04-30T03:07:12.534Z,5.49
2023-04-30T03:11:14.019Z,5.52
2023-04-30T03:15:15.650Z,5.09
2023-04-30T03:19:17.554Z,5.29
2023-04-30T03:23:18.998Z,5.00
2023-04-30T03:27:20.890Z,4.89
2023-04-30T03:31:22.427Z,5.11
2023-04-30T03:35:23.821Z,4.95
2023-04-30T03:39:25.423Z,5.00
2023-04-30T03:43:26.895Z,4.97
2023-04-30T03:47:28.465Z,5.13
2023-04-30T03:51:29.948Z,4.89
2023-04-30T03:55:31.464Z,4.89
2023-04-30T03:59:33.086Z,4.95
2023-04-30T04:03:35.429Z,4.62
2023-04-30T04:07:36.878Z,4.88
2023-04-30T04:11:38.355Z,4.60
2023-04-30T04:15:39.795Z,4.80
2023-04-30T04:19:41.477Z,4.84
2023-04-30T04:23:42.933Z,4.94
2023-04-30T04:27:45.076Z,5.02
2023-04-30T04:31:48.973Z,5.08
2023-04-30T04:35:50.458Z,5.17
2023-04-30T04:39:52.405Z,4.94
2023-04-30T04:43:54.119Z,4.79
2023-04-30T04:47:55.683Z,4.73
2023-04-30T04:51:57.147Z,4.91
2023-04-30T04:55:58.546Z,4.81
2023-04-30T04:59:59.975Z,4.60
2023-04-30T05:04:01.725Z,4.62
2023-04-30T05:08:03.204Z,4.81
2023-04-30T05:12:05.052Z,5.05
2023-04-30T05:16:06.625Z,5.08
2023-04-30T05:20:08.823Z,4.77
2023-04-30T05:24:10.256Z,4.96
2023-04-30T05:28:11.944Z,5.15
2023-04-30T05:32:13.460Z,5.28
2023-04-30T05:36:15.322Z,5.50
2023-04-30T05:40:17.114Z,5.61
2023-04-30T05:44:18.565Z,5.56
2023-04-30T05:48:20.362Z,5.67
2023-04-30T05:52:21.793Z,5.82
2023-04-30T05:56:24.681Z,6.02
2023-04-30T06:00:26.143Z,6.13
2023-04-30T06:04:27.627Z,6.12
2023-04-30T06:08:29.800Z,6.14
2023-04-30T06:12:31.530Z,6.32
2023-04-30T06:16:33.150Z,6.27
2023-04-30T06:20:34.630Z,6.02
2023-04-30T06:24:36.387Z,6.58
2023-04-30T06:28:37.832Z,6.45
2023-04-30T06:32:39.332Z,6.52
2023-04-30T06:36:40.792Z,6.82
2023-04-30T06:40:42.325Z,7.06
2023-04-30T06:44:43.839Z,7.27
2023-04-30T06:48:45.337Z,7.24
2023-04-30T06:52:46.802Z,7.32
2023-04-30T06:56:48.619Z,7.41
2023-04-30T07:00:50.047Z,7.39
2023-04-30T07:04:51.547Z,7.47
2023-04-30T07:08:53.040Z,7.72
2023-04-30T07:12:54.795Z,7.71
2023-04-30T07:16:56.319Z,7.25
2023-04-30T07:20:57.722Z,7.37
2023-04-30T07:24:59.244Z,7.67
2023-04-30T07:29:00.745Z,7.79
2023-04-30T07:33:02.883Z,8.04
2023-04-30T07:37:04.382Z,8.20
2023-04-30T07:41:06.294Z,8.45
2023-04-30T07:45:08.317Z,8.25
2023-04-30T07:49:09.815Z,8.00
2023-04-30T07:53:11.448Z,8.20
2023-04-30T07:57:13.099Z,8.27
2023-04-30T08:01:15.597Z,8.10
2023-04-30T08:05:17.136Z,7.93
2023-04-30T08:09:18.570Z,7.73
2023-04-30T08:13:20.777Z,7.97
2023-04-30T08:17:22.242Z,8.25
2023-04-30T08:21:23.985Z,8.42
2023-04-30T08:25:25.587Z,8.69
2023-04-30T08:29:27.790Z,9.43
2023-04-30T08:33:29.212Z,9.21
2023-04-30T08:37:30.773Z,9.95
2023-04-30T08:41:35.789Z,10.35
2023-04-30T08:45:37.428Z,9.30
2023-04-30T08:49:39.647Z,9.76
2023-04-30T08:53:42.562Z,9.70
2023-04-30T08:57:43.987Z,9.68
2023-04-30T09:01:45.850Z,10.10
2023-04-30T09:05:47.560Z,10.33
2023-04-30T09:09:53.238Z,10.62
2023-04-30T09:14:00.031Z,10.29
2023-04-30T09:18:10.334Z,10.39
2023-04-30T09:22:23.417Z,10.77
2023-04-30T09:26:31.572Z,10.81
2023-04-30T09:30:33.666Z,10.83
2023-04-30T09:34:38.018Z,11.35
2023-04-30T09:38:39.693Z,11.01
2023-04-30T09:42:41.544Z,11.48
2023-04-30T09:46:44.474Z,12.07
2023-04-30T09:50:53.098Z,11.75
2023-04-30T09:54:54.619Z,11.39
2023-04-30T09:58:57.068Z,11.82
2023-04-30T10:03:01.745Z,12.71
2023-04-30T10:07:11.090Z,12.57
2023-04-30T10:11:22.536Z,11.99
2023-04-30T10:15:28.358Z,11.77
2023-04-30T10:19:34.523Z,11.93
2023-04-30T10:23:43.597Z,12.66
2023-04-30T10:27:46.206Z,12.32
2023-04-30T10:31:50.512Z,11.59
2023-04-30T10:35:59.674Z,12.60
2023-04-30T10:40:02.261Z,13.23
2023-04-30T10:44:05.546Z,13.44
2023-04-30T10:48:07.420Z,13.88
2023-04-30T10:52:11.421Z,14.16
2023-04-30T10:56:13.324Z,14.47
2023-04-30T11:00:20.053Z,13.78
2023-04-30T11:04:21.615Z,13.65
2023-04-30T11:08:53.115Z,13.95
2023-04-30T11:12:55.753Z,14.58
2023-04-30T11:16:59.423Z,14.68
2023-04-30T11:21:02.133Z,14.14
2023-04-30T11:25:06.573Z,14.98
2023-04-30T11:29:08.794Z,13.93
2023-04-30T11:33:11.713Z,14.26
2023-04-30T11:37:21.896Z,13.82
2023-04-30T11:41:23.381Z,15.59
2023-04-30T11:45:25.369Z,14.35
2023-04-30T11:49:27.432Z,16.43
2023-04-30T11:53:29.493Z,15.77
2023-04-30T11:57:41.312Z,15.64
2023-04-30T12:01:44.067Z,14.73
2023-04-30T12:05:46.188Z,15.85
2023-04-30T12:09:57.236Z,15.30
2023-04-30T12:14:10.953Z,16.53
2023-04-30T12:18:14.068Z,15.67
2023-04-30T12:22:15.697Z,15.61
2023-04-30T12:26:17.850Z,15.99
2023-04-30T12:30:26.815Z,17.06
2023-04-30T12:34:31.489Z,17.32
2023-04-30T12:38:34.453Z,17.71
2023-04-30T12:42:36.264Z,18.94
2023-04-30T12:46:37.988Z,17.94
2023-04-30T12:50:39.590Z,17.96
2023-04-30T12:54:41.153Z,18.65
2023-04-30T12:58:45.656Z,18.17
2023-04-30T13:02:47.234Z,18.51
2023-04-30T13:06:49.576Z,17.82
2023-04-30T13:10:51.815Z,19.36
2023-04-30T13:14:53.263Z,20.05
2023-04-30T13:18:55.064Z,19.83
2023-04-30T13:22:56.734Z,19.67
2023-04-30T13:26:59.190Z,18.89
2023-04-30T13:31:00.763Z,19.82
2023-04-30T13:35:03.067Z,19.24
2023-04-30T13:39:05.505Z,19.14
2023-04-30T13:43:07.790Z,17.92
2023-04-30T13:47:10.244Z,19.06
2023-04-30T13:51:11.738Z,20.03
2023-04-30T13:55:13.733Z,20.12
2023-04-30T13:59:15.720Z,20.12
2023-04-30T14:03:18.994Z,21.77
2023-04-30T14:07:20.696Z,21.84
2023-04-30T14:11:22.296Z,20.66
2023-04-30T14:15:24.539Z,20.50
2023-04-30T14:19:26.992Z,21.17
2023-04-30T14:23:29.102Z,19.01
2023-04-30T14:27:30.972Z,19.56
2023-04-30T14:31:32.610Z,20.83
2023-04-30T14:35:34.211Z,21.63
2023-04-30T14:39:35.639Z,21.03
2023-04-30T14:43:37.055Z,21.09
2023-04-30T14:47:38.527Z,20.08
2023-04-30T14:51:40.001Z,22.22
2023-04-30T14:55:41.913Z,19.88
2023-04-30T14:59:43.437Z,20.33
2023-04-30T15:03:45.102Z,22.43
2023-04-30T15:07:46.808Z,22.18
2023-04-30T15:11:48.787Z,20.73
2023-04-30T15:15:50.493Z,22.07
2023-04-30T15:19:53.474Z,19.87
2023-04-30T15:23:55.558Z,21.55
2023-04-30T15:27:58.394Z,22.01
2023-04-30T15:31:59.985Z,20.99
2023-04-30T15:36:01.529Z,20.74
2023-04-30T15:40:04.923Z,19.78
2023-04-30T15:44:06.391Z,20.02
2023-04-30T15:48:07.971Z,19.69
2023-04-30T15:52:10.060Z,18.53
2023-04-30T15:56:11.942Z,16.68
2023-04-30T16:00:15.208Z,18.28
2023-04-30T16:04:16.665Z,18.69
2023-04-30T16:08:18.327Z,18.85
2023-04-30T16:12:20.178Z,18.83
2023-04-30T16:16:21.698Z,18.55
2023-04-30T16:20:23.826Z,19.09
2023-04-30T16:24:25.376Z,19.57
2023-04-30T16:28:28.285Z,19.35
2023-04-30T16:32:29.834Z,21.21
2023-04-30T16:36:32.738Z,21.51
2023-04-30T16:40:34.231Z,19.34
2023-04-30T16:44:35.639Z,20.73
2023-04-30T16:48:37.764Z,19.02
2023-04-30T16:52:39.256Z,20.51
2023-04-30T16:56:40.866Z,17.84
2023-04-30T17:00:42.705Z,16.15
2023-04-30T17:04:44.419Z,16.96
2023-04-30T17:08:45.877Z,18.39
2023-04-30T17:12:47.528Z,18.81
2023-04-30T17:16:48.934Z,19.49
2023-04-30T17:20:52.034Z,19.96
2023-04-30T17:24:53.562Z,20.27
2023-04-30T17:28:55.012Z,16.42
2023-04-30T17:32:56.730Z,16.51
2023-04-30T17:36:58.380Z,16.69
2023-04-30T17:40:59.890Z,17.30
2023-04-30T17:45:01.338Z,16.70
2023-04-30T17:49:04.160Z,15.95
2023-04-30T17:53:05.582Z,16.13
2023-04-30T17:57:07.144Z,16.95
2023-04-30T18:01:08.687Z,16.69
2023-04-30T18:05:11.625Z,15.86
2023-04-30T18:09:13.952Z,15.00
2023-04-30T18:13:15.432Z,14.07
2023-04-30T18:17:16.951Z,14.50
2023-04-30T18:21:18.584Z,14.20
2023-04-30T18:25:20.080Z,13.97
2023-04-30T18:29:21.615Z,13.44
2023-04-30T18:33:23.086Z,12.47
2023-04-30T18:37:24.808Z,12.40
2023-04-30T18:41:27.021Z,12.69
2023-04-30T18:45:28.564Z,12.28
2023-04-30T18:49:30.326Z,11.88
2023-04-30T18:53:31.844Z,12.02
2023-04-30T18:57:34.191Z,11.90
2023-04-30T19:01:36.041Z,11.64
2023-04-30T19:05:37.712Z,11.75
2023-04-30T19:09:39.564Z,11.18
2023-04-30T19:13:41.038Z,11.22
2023-04-30T19:17:42.478Z,11.13
2023-04-30T19:21:43.963Z,11.20
2023-04-30T19:25:47.876Z,11.17
2023-04-30T19:29:49.349Z,10.89
2023-04-30T19:33:50.778Z,10.96
2023-04-30T19:37:52.330Z,10.80
2023-04-30T19:41:53.822Z,10.70
2023-04-30T19:45:56.998Z,10.60
2023-04-30T19:49:58.572Z,10.48
2023-04-30T19:54:00.186Z,10.29
2023-04-30T19:58:01.569Z,10.02
2023-04-30T20:02:03.131Z,9.92
2023-04-30T20:06:05.902Z,9.73
2023-04-30T20:10:09.687Z,9.73
2023-04-30T20:14:11.182Z,9.70
2023-04-30T20:18:12.774Z,9.52
2023-04-30T20:22:14.275Z,9.48
2023-04-30T20:26:15.714Z,9.44
2023-04-30T20:30:18.176Z,9.42
2023-04-30T20:34:19.620Z,9.42
2023-04-30T20:38:22.150Z,8.81
2023-04-30T20:42:23.649Z,8.78
2023-04-30T20:46:25.225Z,9.33
2023-04-30T20:50:27.575Z,9.42
2023-04-30T20:54:30.239Z,9.50
2023-04-30T20:58:31.724Z,9.05
2023-04-30T21:02:34.061Z,9.16
2023-04-30T21:06:35.682Z,9.31
2023-04-30T21:10:37.312Z,9.37
2023-04-30T21:14:38.774Z,9.32
2023-04-30T21:18:40.383Z,9.30
2023-04-30T21:22:42.186Z,9.21
2023-04-30T21:26:43.693Z,9.11
2023-04-30T21:30:45.150Z,8.98
2023-04-30T21:34:46.561Z,9.01
2023-04-30T21:38:47.981Z,9.04
2023-04-30T21:42:49.761Z,9.00
2023-04-30T21:46:51.263Z,8.93
2023-04-30T21:50:52.696Z,8.88
2023-04-30T21:54:54.108Z,8.77
2023-04-30T21:58:55.564Z,8.72
2023-04-30T22:02:57.091Z,8.65
2023-04-30T22:06:58.773Z,8.57
2023-04-30T22:11:00.935Z,8.53
2023-04-30T22:15:02.953Z,8.49
2023-04-30T22:19:04.442Z,8.46
2023-04-30T22:23:05.994Z,8.40
2023-04-30T22:27:08.562Z,8.43
2023-04-30T22:31:10.074Z,8.38
2023-04-30T22:35:11.694Z,8.34
2023-04-30T22:39:13.301Z,8.30
2023-04-30T22:43:14.782Z,8.20
2023-04-30T22:47:16.523Z,8.17
2023-04-30T22:51:18.904Z,8.12
2023-04-30T22:55:20.336Z,8.01
2023-04-30T22:59:21.968Z,7.93
2023-04-30T23:03:23.425Z,7.90
2023-04-30T23:07:24.943Z,7.88
2023-04-30T23:11:26.758Z,7.69
2023-04-30T23:15:28.368Z,7.66
2023-04-30T23:19:29.821Z,7.59
2023-04-30T23:23:32.290Z,7.65
2023-04-30T23:27:33.893Z,7.61
2023-04-30T23:31:35.558Z,7.55
2023-04-30T23:35:37.249Z,7.54
2023-04-30T23:39:38.677Z,7.41
2023-04-30T23:43:40.104Z,7.36
2023-04-30T23:47:41.582Z,7.25
2023-04-30T23:51:43.416Z,7.22
2023-04-30T23:55:44.812Z,6.87
2023-04-30T23:59:46.204Z,7.06
